createdAt,value
2019-01-08T00:00:35.782Z,44.82
2019-01-08T00:03:03.772Z,44.18
2019-01-08T00:05:31.821Z,45.15
2019-01-08T00:07:59.581Z,44.64
2019-01-08T00:10:27.404Z,44.58
2019-01-08T00:12:55.184Z,44.53
2019-01-08T00:15:23.273Z,44.93
2019-01-08T00:17:51.342Z,44.73
2019-01-08T00:20:19.195Z,44.77
2019-01-08T00:22:47.525Z,44.29
2019-01-08T00:25:15.363Z,44.46
2019-01-08T00:27:43.132Z,44.67
2019-01-08T00:30:10.925Z,45.06
2019-01-08T00:32:38.684Z,44.57
2019-01-08T00:35:06.728Z,44.78
2019-01-08T00:37:34.470Z,44.73
2019-01-08T00:40:02.454Z,44.78
2019-01-08T00:42:30.429Z,44.69
2019-01-08T00:44:58.195Z,44.83
2019-01-08T00:47:26.001Z,44.10
2019-01-08T00:49:53.932Z,43.74
2019-01-08T00:52:22.250Z,44.81
2019-01-08T00:54:56.509Z,44.35
2019-01-08T00:57:25.337Z,44.38
2019-01-08T00:59:53.142Z,44.30
2019-01-08T01:02:21.018Z,43.59
2019-01-08T01:04:48.769Z,44.92
2019-01-08T01:07:16.850Z,44.25
2019-01-08T01:09:44.894Z,44.18
2019-01-08T01:12:12.649Z,44.71
2019-01-08T01:14:40.431Z,43.81
2019-01-08T01:17:08.858Z,44.89
2019-01-08T01:19:36.612Z,43.80
2019-01-08T01:22:04.384Z,44.73
2019-01-08T01:24:32.187Z,45.08
2019-01-08T01:27:00.724Z,44.42
2019-01-08T01:29:28.640Z,45.10
2019-01-08T01:31:56.396Z,44.85
2019-01-08T01:34:24.527Z,44.21
2019-01-08T01:36:52.319Z,44.89
2019-01-08T01:39:20.079Z,44.92
2019-01-08T01:41:48.141Z,45.03
2019-01-08T01:44:16.128Z,44.82
2019-01-08T01:46:44.230Z,43.99
2019-01-08T01:49:12.074Z,44.78
2019-01-08T01:51:42.054Z,44.86
2019-01-08T01:54:10.892Z,44.98
2019-01-08T01:56:38.656Z,44.56
2019-01-08T01:59:08.636Z,44.99
2019-01-08T02:01:36.538Z,44.59
2019-01-08T02:04:04.652Z,44.47
2019-01-08T02:06:32.422Z,44.30
2019-01-08T02:09:00.177Z,45.04
2019-01-08T02:11:28.162Z,44.75
2019-01-08T02:13:56.338Z,44.46
2019-01-08T02:16:24.257Z,44.60
2019-01-08T02:18:52.132Z,45.06
2019-01-08T02:21:20.345Z,43.75
2019-01-08T02:23:48.103Z,44.95
2019-01-08T02:26:15.993Z,45.00
2019-01-08T02:28:43.771Z,44.36
2019-01-08T02:31:11.717Z,44.97
2019-01-08T02:33:40.530Z,43.33
2019-01-08T02:36:08.646Z,43.88
2019-01-08T02:38:36.447Z,44.63
2019-01-08T02:41:04.345Z,43.90
2019-01-08T02:43:32.100Z,44.57
2019-01-08T02:45:59.884Z,44.47
2019-01-08T02:48:28.034Z,43.44
2019-01-08T02:50:55.977Z,44.90
2019-01-08T02:53:24.004Z,44.76
2019-01-08T02:55:51.784Z,44.72
2019-01-08T02:58:19.864Z,44.81
2019-01-08T03:00:48.708Z,44.87
2019-01-08T03:03:16.588Z,44.79
2019-01-08T03:05:45.206Z,44.75
2019-01-08T03:08:12.947Z,44.70
2019-01-08T03:10:40.720Z,44.69
2019-01-08T03:13:09.421Z,45.03
2019-01-08T03:15:37.568Z,44.44
2019-01-08T03:18:05.481Z,44.76
2019-01-08T03:20:34.720Z,44.60
2019-01-08T03:23:02.841Z,44.91
2019-01-08T03:25:30.672Z,44.47
2019-01-08T03:27:58.431Z,44.81
2019-01-08T03:30:26.215Z,44.93
2019-01-08T03:32:54.359Z,44.85
2019-01-08T03:35:22.773Z,44.85
2019-01-08T03:37:50.925Z,44.81
2019-01-08T03:40:18.688Z,43.73
2019-01-08T03:42:46.480Z,45.02
2019-01-08T03:45:17.409Z,43.55
2019-01-08T03:47:45.158Z,44.40
2019-01-08T03:50:13.054Z,44.09
2019-01-08T03:52:42.132Z,44.27
2019-01-08T03:55:09.896Z,44.51
2019-01-08T03:57:37.738Z,44.95
2019-01-08T04:00:06.486Z,45.28
2019-01-08T04:02:34.508Z,44.66
2019-01-08T04:05:02.417Z,44.51
2019-01-08T04:07:30.182Z,44.16
2019-01-08T04:09:58.068Z,45.03
2019-01-08T04:12:26.083Z,43.98
2019-01-08T04:14:54.311Z,43.69
2019-01-08T04:17:22.142Z,44.08
2019-01-08T04:19:49.905Z,44.58
2019-01-08T04:22:17.675Z,45.13
2019-01-08T04:24:49.977Z,44.13
2019-01-08T04:27:17.790Z,44.92
2019-01-08T04:29:50.391Z,45.04
2019-01-08T04:32:15.091Z,44.58
2019-01-08T04:34:42.907Z,45.24
2019-01-08T04:37:10.646Z,44.68
2019-01-08T04:39:40.636Z,44.94
2019-01-08T04:42:12.511Z,45.09
2019-01-08T04:44:40.325Z,43.88
2019-01-08T04:47:09.059Z,44.66
2019-01-08T04:49:37.062Z,43.90
2019-01-08T04:52:04.821Z,44.89
2019-01-08T04:54:32.758Z,44.94
2019-01-08T04:57:00.521Z,45.01
2019-01-08T04:59:28.739Z,44.92
2019-01-08T05:01:56.781Z,45.29
2019-01-08T05:04:24.621Z,45.36
2019-01-08T05:06:52.471Z,44.58
2019-01-08T05:09:20.303Z,44.20
2019-01-08T05:11:48.080Z,44.11
2019-01-08T05:14:15.967Z,44.66
2019-01-08T05:16:44.016Z,45.05
2019-01-08T05:19:12.138Z,44.34
2019-01-08T05:21:39.952Z,45.11
2019-01-08T05:24:07.741Z,45.09
2019-01-08T05:26:35.581Z,44.25
2019-01-08T05:29:03.366Z,44.38
2019-01-08T05:31:31.741Z,44.74
2019-01-08T05:34:00.134Z,43.86
2019-01-08T05:36:28.022Z,43.91
2019-01-08T05:38:55.803Z,44.74
2019-01-08T05:41:23.627Z,44.99
2019-01-08T05:43:51.385Z,45.18
2019-01-08T05:46:19.969Z,45.12
2019-01-08T05:48:48.487Z,45.16
2019-01-08T05:51:16.817Z,44.46
2019-01-08T05:53:45.091Z,44.87
2019-01-08T05:56:13.000Z,45.16
2019-01-08T05:58:42.236Z,45.51
2019-01-08T06:01:10.164Z,44.68
2019-01-08T06:03:38.220Z,45.52
2019-01-08T06:06:06.438Z,44.56
2019-01-08T06:08:34.294Z,44.92
2019-01-08T06:11:03.659Z,44.87
2019-01-08T06:13:31.426Z,45.13
2019-01-08T06:15:59.232Z,46.49
2019-01-08T06:18:27.444Z,46.35
2019-01-08T06:20:55.208Z,46.20
2019-01-08T06:23:24.052Z,44.85
2019-01-08T06:25:51.924Z,45.12
2019-01-08T06:28:19.701Z,44.69
2019-01-08T06:30:47.793Z,46.15
2019-01-08T06:33:15.580Z,44.65
2019-01-08T06:35:43.520Z,44.23
2019-01-08T06:38:11.423Z,44.83
2019-01-08T06:40:39.376Z,45.30
2019-01-08T06:43:07.383Z,45.04
2019-01-08T06:45:35.363Z,44.55
2019-01-08T06:48:03.229Z,46.43
2019-01-08T06:50:31.502Z,45.62
2019-01-08T06:52:59.324Z,45.37
2019-01-08T06:55:27.341Z,44.29
2019-01-08T06:57:55.198Z,43.80
2019-01-08T07:00:22.956Z,43.95
2019-01-08T07:02:50.809Z,44.51
2019-01-08T07:05:18.700Z,44.82
2019-01-08T07:08:13.746Z,44.58
2019-01-08T07:10:41.512Z,44.75
2019-01-08T07:13:09.757Z,43.76
2019-01-08T07:15:37.500Z,42.68
2019-01-08T07:18:05.285Z,43.17
2019-01-08T07:20:33.036Z,43.25
2019-01-08T07:23:01.906Z,43.62
2019-01-08T07:25:30.005Z,43.52
2019-01-08T07:27:57.881Z,41.43
2019-01-08T07:30:25.927Z,43.92
2019-01-08T07:32:53.818Z,44.10
2019-01-08T07:35:21.645Z,42.49
2019-01-08T07:37:49.423Z,43.54
2019-01-08T07:40:17.168Z,43.21
2019-01-08T07:42:45.081Z,42.93
2019-01-08T07:45:13.152Z,44.21
2019-01-08T07:47:41.347Z,43.35
2019-01-08T07:50:09.699Z,44.06
2019-01-08T07:52:38.018Z,43.76
2019-01-08T07:55:05.907Z,43.23
2019-01-08T07:57:33.737Z,43.94
2019-01-08T08:00:01.566Z,44.38
2019-01-08T08:02:29.325Z,44.77
2019-01-08T08:04:57.440Z,42.09
2019-01-08T08:07:25.249Z,43.07
2019-01-08T08:09:53.046Z,42.27
2019-01-08T08:12:20.814Z,41.82
2019-01-08T08:14:48.592Z,42.12
2019-01-08T08:17:16.361Z,41.75
2019-01-08T08:19:44.121Z,43.70
2019-01-08T08:22:11.900Z,41.57
2019-01-08T08:24:39.828Z,42.20
2019-01-08T08:27:07.624Z,44.05
2019-01-08T08:29:35.561Z,43.55
2019-01-08T08:32:03.344Z,42.84
2019-01-08T08:34:31.407Z,41.55
2019-01-08T08:37:00.304Z,43.13
2019-01-08T08:39:28.480Z,42.90
2019-01-08T08:41:56.217Z,44.07
2019-01-08T08:44:24.247Z,45.38
2019-01-08T08:46:52.777Z,43.87
2019-01-08T08:49:20.558Z,43.01
2019-01-08T08:51:48.362Z,43.88
2019-01-08T08:54:16.121Z,43.63
2019-01-08T08:56:44.244Z,43.27
2019-01-08T08:59:12.016Z,43.60
2019-01-08T09:01:39.761Z,43.61
2019-01-08T09:04:07.545Z,43.41
2019-01-08T09:06:35.276Z,43.66
2019-01-08T09:09:03.054Z,43.32
2019-01-08T09:11:31.124Z,43.34
2019-01-08T09:13:58.881Z,43.42
2019-01-08T09:16:26.827Z,43.43
2019-01-08T09:18:54.649Z,43.29
2019-01-08T09:21:22.406Z,43.35
2019-01-08T09:23:50.654Z,43.48
2019-01-08T09:26:18.986Z,43.49
2019-01-08T09:28:46.744Z,43.28
2019-01-08T09:31:15.880Z,43.33
2019-01-08T09:33:44.184Z,43.36
2019-01-08T09:36:11.947Z,43.49
2019-01-08T09:38:39.692Z,43.29
2019-01-08T09:41:07.427Z,43.12
2019-01-08T09:43:35.198Z,43.25
2019-01-08T09:46:02.945Z,43.18
2019-01-08T09:48:30.783Z,43.37
2019-01-08T09:50:58.609Z,43.43
2019-01-08T09:53:26.504Z,43.41
2019-01-08T09:55:54.399Z,43.39
2019-01-08T09:58:22.233Z,43.48
2019-01-08T10:00:50.100Z,43.22
2019-01-08T10:03:18.173Z,43.10
2019-01-08T10:05:46.176Z,43.14
2019-01-08T10:08:13.943Z,43.17
2019-01-08T10:10:41.708Z,43.07
2019-01-08T10:13:09.534Z,43.08
2019-01-08T10:15:37.285Z,43.18
2019-01-08T10:18:05.056Z,43.00
2019-01-08T10:20:33.134Z,43.17
2019-01-08T10:23:01.207Z,43.17
2019-01-08T10:25:28.974Z,43.27
2019-01-08T10:27:56.721Z,43.36
2019-01-08T10:30:24.482Z,43.06
2019-01-08T10:32:52.235Z,43.27
2019-01-08T10:35:19.982Z,43.26
2019-01-08T10:37:47.747Z,42.53
2019-01-08T10:40:15.520Z,43.17
2019-01-08T10:42:43.370Z,43.29
2019-01-08T10:45:11.117Z,43.21
2019-01-08T10:47:38.885Z,43.13
2019-01-08T10:50:06.873Z,43.20
2019-01-08T10:52:34.812Z,43.05
2019-01-08T10:55:02.856Z,42.90
2019-01-08T10:57:30.588Z,42.99
2019-01-08T10:59:58.586Z,42.81
2019-01-08T11:02:26.408Z,42.99
2019-01-08T11:04:54.397Z,42.82
2019-01-08T11:07:22.157Z,42.83
2019-01-08T11:09:50.233Z,42.78
2019-01-08T11:12:18.008Z,43.02
2019-01-08T11:14:46.209Z,42.81
2019-01-08T11:17:13.990Z,43.11
2019-01-08T11:19:41.743Z,43.00
2019-01-08T11:22:09.492Z,43.04
2019-01-08T11:24:37.258Z,43.01
2019-01-08T11:27:05.084Z,43.14
2019-01-08T11:29:32.836Z,43.01
2019-01-08T11:32:01.310Z,43.07
2019-01-08T11:34:29.050Z,42.84
2019-01-08T11:36:57.137Z,42.95
2019-01-08T11:39:25.996Z,42.93
2019-01-08T11:41:53.732Z,42.96
2019-01-08T11:44:21.473Z,42.81
2019-01-08T11:46:49.223Z,42.97
2019-01-08T11:49:17.071Z,42.90
2019-01-08T11:51:44.908Z,43.01
2019-01-08T11:54:12.653Z,42.90
2019-01-08T11:56:40.763Z,42.92
2019-01-08T11:59:08.995Z,42.84
2019-01-08T12:01:37.057Z,42.79
2019-01-08T12:04:04.805Z,42.56
2019-01-08T12:06:37.361Z,42.71
2019-01-08T12:09:05.997Z,42.62
2019-01-08T12:11:35.489Z,42.75
2019-01-08T12:14:03.353Z,42.51
2019-01-08T12:16:31.208Z,42.62
2019-01-08T12:18:59.385Z,42.74
2019-01-08T12:21:27.825Z,42.83
2019-01-08T12:23:55.802Z,42.65
2019-01-08T12:26:23.556Z,42.71
2019-01-08T12:28:51.661Z,42.87
2019-01-08T12:31:19.550Z,42.77
2019-01-08T12:33:47.344Z,42.83
2019-01-08T12:36:15.093Z,42.84
2019-01-08T12:38:42.869Z,42.85
2019-01-08T12:41:10.618Z,42.73
2019-01-08T12:43:38.372Z,42.16
2019-01-08T12:46:06.128Z,42.75
2019-01-08T12:48:33.873Z,42.83
2019-01-08T12:51:01.694Z,42.88
2019-01-08T12:53:29.729Z,42.78
2019-01-08T12:55:57.512Z,42.54
2019-01-08T12:58:25.529Z,42.77
2019-01-08T13:00:53.462Z,42.50
2019-01-08T13:03:21.612Z,42.83
2019-01-08T13:05:49.629Z,42.48
2019-01-08T13:08:17.771Z,42.78
2019-01-08T13:10:45.538Z,42.24
2019-01-08T13:13:13.360Z,42.70
2019-01-08T13:15:41.129Z,42.69
2019-01-08T13:18:09.508Z,42.68
2019-01-08T13:20:37.288Z,42.73
2019-01-08T13:23:05.358Z,42.64
2019-01-08T13:25:33.240Z,42.69
2019-01-08T13:28:00.993Z,42.12
2019-01-08T13:30:29.081Z,41.35
2019-01-08T13:32:56.860Z,43.04
2019-01-08T13:35:25.172Z,42.42
2019-01-08T13:37:52.935Z,42.61
2019-01-08T13:40:21.287Z,42.50
2019-01-08T13:42:49.348Z,42.29
2019-01-08T13:45:17.095Z,42.28
2019-01-08T13:47:44.848Z,42.54
2019-01-08T13:50:12.745Z,42.58
2019-01-08T13:52:40.490Z,42.27
2019-01-08T13:55:08.567Z,42.53
2019-01-08T13:57:36.393Z,42.27
2019-01-08T14:00:04.604Z,42.26
2019-01-08T14:02:32.355Z,42.33
2019-01-08T14:05:00.712Z,37.63
2019-01-08T14:07:28.488Z,45.33
2019-01-08T14:09:56.371Z,42.54
2019-01-08T14:12:24.225Z,42.21
2019-01-08T14:14:51.965Z,41.92
2019-01-08T14:17:19.774Z,42.32
2019-01-08T14:19:48.376Z,42.36
2019-01-08T14:22:17.355Z,42.10
2019-01-08T14:24:45.820Z,41.90
2019-01-08T14:33:33.749Z,41.81
2019-01-08T14:36:01.536Z,41.73
2019-01-08T14:38:29.324Z,41.82
2019-01-08T14:40:57.325Z,41.84
2019-01-08T14:43:25.247Z,38.20
2019-01-08T14:45:53.057Z,42.85
2019-01-08T14:48:20.826Z,43.11
2019-01-08T14:50:48.649Z,41.02
2019-01-08T14:53:16.892Z,41.16
2019-01-08T14:55:45.433Z,42.25
2019-01-08T14:58:13.240Z,41.82
2019-01-08T15:00:40.992Z,41.64
2019-01-08T15:03:09.029Z,41.73
2019-01-08T15:05:37.039Z,41.67
2019-01-08T15:08:05.128Z,41.69
2019-01-08T15:10:32.990Z,41.75
2019-01-08T15:13:00.794Z,41.77
2019-01-08T15:17:55.700Z,41.87
2019-01-08T15:20:23.433Z,41.88
2019-01-08T15:22:51.192Z,42.41
2019-01-08T15:25:18.977Z,42.27
2019-01-08T15:27:47.044Z,43.46
2019-01-08T15:30:14.849Z,42.80
2019-01-08T15:32:42.983Z,42.36
2019-01-08T15:35:12.135Z,41.96
2019-01-08T15:37:40.019Z,41.93
2019-01-08T15:40:09.316Z,41.88
2019-01-08T15:42:37.093Z,42.28
2019-01-08T15:45:05.616Z,42.44
2019-01-08T15:47:33.782Z,41.76
2019-01-08T15:50:01.534Z,42.11
2019-01-08T15:52:29.309Z,42.37
2019-01-08T15:54:57.179Z,42.16
2019-01-08T15:57:24.927Z,42.05
2019-01-08T15:59:52.768Z,41.78
2019-01-08T16:02:20.780Z,41.36
2019-01-08T16:04:50.965Z,40.95
2019-01-08T16:07:18.911Z,41.08
2019-01-08T16:09:48.771Z,41.16
2019-01-08T16:12:16.227Z,41.35
2019-01-08T16:14:43.987Z,41.30
2019-01-08T16:17:11.929Z,41.09
2019-01-08T16:19:39.756Z,41.08
2019-01-08T16:22:07.690Z,41.03
2019-01-08T16:24:35.554Z,41.67
2019-01-08T16:27:03.705Z,41.77
2019-01-08T16:29:31.962Z,41.81
2019-01-08T16:31:59.867Z,41.51
2019-01-08T16:34:29.270Z,41.91
2019-01-08T16:36:57.059Z,41.36
2019-01-08T16:39:25.298Z,41.25
2019-01-08T16:41:55.974Z,41.69
2019-01-08T16:44:27.579Z,41.22
2019-01-08T16:47:01.104Z,41.21
2019-01-08T16:52:42.758Z,41.37
2019-01-08T16:55:11.538Z,41.74
2019-01-08T16:57:39.365Z,41.13
2019-01-08T17:00:08.704Z,40.95
2019-01-08T17:02:36.530Z,41.05
2019-01-08T17:05:04.402Z,41.46
2019-01-08T17:07:32.616Z,41.73
2019-01-08T17:10:00.426Z,44.33
2019-01-08T17:12:29.223Z,40.99
2019-01-08T17:15:03.719Z,40.79
2019-01-08T17:17:32.654Z,41.58
2019-01-08T17:20:00.644Z,41.45
2019-01-08T17:22:28.427Z,41.36
2019-01-08T17:24:56.786Z,41.10
2019-01-08T17:27:24.538Z,40.52
2019-01-08T17:29:52.321Z,40.78
2019-01-08T17:32:20.076Z,41.46
2019-01-08T17:34:47.983Z,40.86
2019-01-08T17:37:16.116Z,40.80
2019-01-08T17:39:44.316Z,40.61
2019-01-08T17:42:12.072Z,40.64
2019-01-08T17:44:39.902Z,41.18
2019-01-08T17:47:08.041Z,40.71
2019-01-08T17:49:36.068Z,40.70
2019-01-08T17:52:04.166Z,40.83
2019-01-08T17:54:32.301Z,40.30
2019-01-08T17:57:00.812Z,40.88
2019-01-08T17:59:29.537Z,40.84
2019-01-08T18:04:24.736Z,41.30
2019-01-08T18:06:52.706Z,41.58
2019-01-08T18:09:20.469Z,41.72
2019-01-08T18:11:48.253Z,42.10
2019-01-08T18:14:16.013Z,41.59
2019-01-08T18:16:43.796Z,41.44
2019-01-08T18:19:11.538Z,41.60
2019-01-08T18:21:39.564Z,42.25
2019-01-08T18:24:07.378Z,42.19
2019-01-08T18:26:35.238Z,42.13
2019-01-08T18:29:03.131Z,42.29
2019-01-08T18:31:31.045Z,42.37
2019-01-08T18:33:58.827Z,44.24
2019-01-08T18:36:26.953Z,45.67
2019-01-08T18:38:54.858Z,46.10
2019-01-08T18:41:22.640Z,45.74
2019-01-08T18:43:50.394Z,45.39
2019-01-08T18:46:18.267Z,45.02
2019-01-08T18:48:46.123Z,44.69
2019-01-08T18:51:13.962Z,43.65
2019-01-08T18:53:42.797Z,44.04
2019-01-08T18:56:11.567Z,43.95
2019-01-08T18:58:40.359Z,43.44
2019-01-08T19:01:08.473Z,43.10
2019-01-08T19:03:36.250Z,42.86
2019-01-08T19:06:04.064Z,43.17
2019-01-08T19:08:54.552Z,44.62
2019-01-08T19:11:22.492Z,44.16
2019-01-08T19:13:50.353Z,43.30
2019-01-08T19:16:18.104Z,42.79
2019-01-08T19:18:45.874Z,42.48
2019-01-08T19:21:13.974Z,42.07
2019-01-08T19:23:42.243Z,42.13
2019-01-08T19:26:10.036Z,42.11
2019-01-08T19:28:38.277Z,41.88
2019-01-08T19:31:06.112Z,41.59
2019-01-08T19:33:34.292Z,41.94
2019-01-08T19:36:02.409Z,46.84
2019-01-08T19:38:31.191Z,45.08
2019-01-08T19:40:59.034Z,44.92
2019-01-08T19:43:28.231Z,47.23
2019-01-08T19:45:56.006Z,46.00
2019-01-08T19:48:23.761Z,45.24
2019-01-08T19:50:51.919Z,44.82
2019-01-08T19:53:20.028Z,44.57
2019-01-08T19:55:48.148Z,44.25
2019-01-08T19:58:15.903Z,43.64
2019-01-08T20:00:44.088Z,43.35
2019-01-08T20:03:11.916Z,43.34
2019-01-08T20:05:39.753Z,43.27
2019-01-08T20:08:07.884Z,42.96
2019-01-08T20:10:35.994Z,43.01
2019-01-08T20:13:03.819Z,43.02
2019-01-08T20:15:31.828Z,42.54
2019-01-08T20:18:00.838Z,42.71
2019-01-08T20:20:28.600Z,43.45
2019-01-08T20:22:56.641Z,42.81
2019-01-08T20:25:24.838Z,42.84
2019-01-08T20:27:52.789Z,42.75
2019-01-08T20:30:21.725Z,42.36
2019-01-08T20:32:49.760Z,42.62
2019-01-08T20:35:17.992Z,42.50
2019-01-08T20:37:46.253Z,42.36
2019-01-08T20:40:14.287Z,42.43
2019-01-08T20:42:43.110Z,42.15
2019-01-08T20:45:12.068Z,42.49
2019-01-08T20:47:42.617Z,42.11
2019-01-08T20:50:10.589Z,42.53
2019-01-08T20:52:39.543Z,42.29
2019-01-08T20:55:08.925Z,42.16
2019-01-08T20:57:36.748Z,42.19
2019-01-08T21:00:05.109Z,42.17
2019-01-08T21:02:33.320Z,42.16
2019-01-08T21:05:01.266Z,42.13
2019-01-08T21:07:29.159Z,42.20
2019-01-08T21:09:56.969Z,42.29
2019-01-08T21:12:24.775Z,42.11
2019-01-08T21:14:52.607Z,42.14
2019-01-08T21:17:20.373Z,42.16
2019-01-08T21:19:48.159Z,42.38
2019-01-08T21:22:18.180Z,42.04
2019-01-08T21:24:46.400Z,42.35
2019-01-08T21:27:14.185Z,42.56
2019-01-08T21:29:42.189Z,42.63
2019-01-08T21:32:10.292Z,39.82
2019-01-08T21:34:44.268Z,44.84
2019-01-08T21:37:07.585Z,43.92
2019-01-08T21:39:36.791Z,43.69
2019-01-08T21:42:04.548Z,43.64
2019-01-08T21:44:32.394Z,42.98
2019-01-08T21:47:00.137Z,42.72
2019-01-08T21:49:28.002Z,43.19
2019-01-08T21:51:55.796Z,42.89
2019-01-08T21:54:23.809Z,42.84
2019-01-08T21:56:51.890Z,42.97
2019-01-08T21:59:19.834Z,43.04
2019-01-08T22:01:47.631Z,42.71
2019-01-08T22:04:15.506Z,42.70
2019-01-08T22:06:43.551Z,42.92
2019-01-08T22:09:11.400Z,43.28
2019-01-08T22:11:39.378Z,42.56
2019-01-08T22:14:07.270Z,42.88
2019-01-08T22:16:35.218Z,42.82
2019-01-08T22:19:03.092Z,42.80
2019-01-08T22:21:30.940Z,42.86
2019-01-08T22:23:58.872Z,42.81
2019-01-08T22:26:26.860Z,43.37
2019-01-08T22:28:55.044Z,43.09
2019-01-08T22:31:23.294Z,43.19
2019-01-08T22:33:51.215Z,43.49
2019-01-08T22:36:19.060Z,43.49
2019-01-08T22:38:46.859Z,43.80
2019-01-08T22:42:21.297Z,43.89
2019-01-08T22:44:49.459Z,43.40
2019-01-08T22:47:17.277Z,43.44
2019-01-08T22:49:45.396Z,43.38
2019-01-08T22:52:13.321Z,43.80
2019-01-08T22:54:41.117Z,43.59
2019-01-08T22:57:09.444Z,43.66
2019-01-08T22:59:37.192Z,44.25
2019-01-08T23:02:06.518Z,43.64
2019-01-08T23:04:34.275Z,44.07
2019-01-08T23:07:03.145Z,43.89
2019-01-08T23:09:31.181Z,43.97
2019-01-08T23:11:58.986Z,44.12
2019-01-08T23:14:26.851Z,44.01
2019-01-08T23:16:54.640Z,43.96
2019-01-08T23:19:22.398Z,43.91
2019-01-08T23:21:50.237Z,44.02
2019-01-08T23:24:17.982Z,43.89
2019-01-08T23:26:46.070Z,44.25
2019-01-08T23:29:13.846Z,43.93
2019-01-08T23:31:41.601Z,43.94
2019-01-08T23:34:09.429Z,44.49
2019-01-08T23:36:37.259Z,43.87
2019-01-08T23:39:06.557Z,43.95
2019-01-08T23:41:35.387Z,43.82
2019-01-08T23:44:03.211Z,43.96
2019-01-08T23:46:31.663Z,44.06
2019-01-08T23:48:59.400Z,44.28
2019-01-08T23:51:27.192Z,44.26
2019-01-08T23:53:55.584Z,44.37
2019-01-08T23:56:23.793Z,44.37
2019-01-08T23:58:51.572Z,44.46
